Time;durP1;ratioP1;P1;durP2;ratioP2;P2;SDS_P1;SDS_P2;PMS_P1;PMS_P2;Temp;Humidity;BMP_temperature;BMP_pressure;BME280_temperature;BME280_humidity;BME280_pressure;Samples;Min_cycle;Max_cycle;Signal;HPM_P1;HPM_P2
2023/10/07 00:02:12;;;;;;;7.30;2.63;;;15.60;99.90;;;;;;4849199;29;20037;-81
2023/10/07 00:04:42;;;;;;;7.05;2.80;;;15.50;99.90;;;;;;4850238;29;20304;-82
2023/10/07 00:07:14;;;;;;;7.90;2.45;;;15.50;99.90;;;;;;4850352;29;20094;-81
2023/10/07 00:09:43;;;;;;;6.95;2.50;;;15.40;99.90;;;;;;4849719;29;20048;-82
2023/10/07 00:12:19;;;;;;;6.03;2.33;;;15.40;99.90;;;;;;4853482;29;20033;-82
2023/10/07 00:14:45;;;;;;;5.82;2.70;;;15.40;99.90;;;;;;4864146;29;20403;-82
2023/10/07 00:17:18;;;;;;;7.03;2.60;;;15.30;99.90;;;;;;4848610;29;20040;-81
2023/10/07 00:19:47;;;;;;;10.38;2.90;;;15.30;99.90;;;;;;4851188;29;20037;-81
2023/10/07 00:22:14;;;;;;;6.47;2.42;;;15.30;99.90;;;;;;4860230;29;20037;-82
2023/10/07 00:24:43;;;;;;;10.63;2.70;;;15.30;99.90;;;;;;4850919;29;20044;-83
2023/10/07 00:27:38;;;;;;;8.85;2.45;;;15.30;99.90;;;;;;4850299;29;20399;-82
2023/10/07 00:30:15;;;;;;;7.45;2.58;;;15.30;99.90;;;;;;4849789;29;20057;-81
2023/10/07 00:32:41;;;;;;;10.02;2.60;;;15.40;99.90;;;;;;4849297;29;20129;-82
2023/10/07 00:35:07;;;;;;;7.15;2.45;;;15.40;99.90;;;;;;4845437;29;20043;-82
2023/10/07 00:37:38;;;;;;;9.98;2.80;;;15.40;99.90;;;;;;4831735;29;20041;-82
2023/10/07 00:40:14;;;;;;;7.25;2.80;;;15.40;99.90;;;;;;4846794;29;20041;-80
2023/10/07 00:42:45;;;;;;;6.15;2.50;;;15.40;99.90;;;;;;4856931;29;20084;-81
2023/10/07 00:45:16;;;;;;;5.35;2.28;;;15.50;99.90;;;;;;4855735;29;20041;-81
2023/10/07 00:47:42;;;;;;;6.63;2.60;;;15.50;99.90;;;;;;4848898;29;20120;-81
2023/10/07 00:50:11;;;;;;;8.20;2.33;;;15.50;99.90;;;;;;4848391;29;20049;-82
2023/10/07 00:52:55;;;;;;;8.25;2.50;;;15.60;99.90;;;;;;4846544;29;20037;-82
2023/10/07 00:55:28;;;;;;;7.63;2.50;;;15.60;99.90;;;;;;4830234;29;20057;-81
2023/10/07 00:58:35;;;;;;;8.40;2.28;;;15.60;99.90;;;;;;4834242;29;20026;-82
2023/10/07 01:00:56;;;;;;;6.40;2.67;;;15.60;99.90;;;;;;4849352;29;20045;-82
2023/10/07 01:06:14;;;;;;;9.00;2.67;;;15.60;99.90;;;;;;4848287;29;20132;-81
2023/10/07 01:08:45;;;;;;;6.60;2.90;;;15.60;99.90;;;;;;4850193;29;20042;-82
2023/10/07 01:13:48;;;;;;;7.68;2.00;;;15.60;99.90;;;;;;4850892;29;19916;-81
2023/10/07 01:16:24;;;;;;;8.52;2.40;;;15.60;99.90;;;;;;4853835;29;20076;-82
2023/10/07 01:18:50;;;;;;;10.82;2.60;;;15.60;99.90;;;;;;4860202;29;20033;-82
2023/10/07 01:21:31;;;;;;;7.43;2.42;;;15.60;99.90;;;;;;4854970;29;20037;-81
2023/10/07 01:23:56;;;;;;;6.23;2.17;;;15.60;99.90;;;;;;4854265;29;20030;-82
2023/10/07 01:26:23;;;;;;;8.98;2.33;;;15.60;99.90;;;;;;4848870;29;20090;-82
2023/10/07 01:28:56;;;;;;;7.43;2.70;;;15.60;99.90;;;;;;4850057;29;20040;-81
2023/10/07 01:31:23;;;;;;;9.57;2.40;;;15.60;99.90;;;;;;4845362;29;20033;-82
2023/10/07 01:33:48;;;;;;;6.30;2.20;;;15.60;99.90;;;;;;4847683;29;20093;-82
2023/10/07 01:36:24;;;;;;;6.32;2.55;;;15.60;99.90;;;;;;4845295;29;20037;-80
2023/10/07 01:38:53;;;;;;;6.88;2.60;;;15.50;99.90;;;;;;4848489;29;20033;-82
2023/10/07 01:41:20;;;;;;;7.45;2.55;;;15.50;99.90;;;;;;4848214;29;20480;-80
2023/10/07 01:43:59;;;;;;;9.68;2.80;;;15.50;99.90;;;;;;4845854;29;20117;-82
2023/10/07 01:46:30;;;;;;;5.72;2.45;;;15.50;99.90;;;;;;4845555;29;20101;-82
2023/10/07 01:49:11;;;;;;;8.20;2.55;;;15.50;99.90;;;;;;4845115;29;20033;-82
2023/10/07 01:51:44;;;;;;;6.43;2.85;;;15.50;99.90;;;;;;4848029;29;20033;-82
2023/10/07 01:54:11;;;;;;;6.45;2.45;;;15.50;99.90;;;;;;4849606;29;20033;-81
2023/10/07 01:56:40;;;;;;;5.57;2.50;;;15.50;99.90;;;;;;4851005;29;20136;-81
2023/10/07 02:01:42;;;;;;;9.07;2.38;;;15.50;99.90;;;;;;4840381;29;20607;-81
2023/10/07 02:04:18;;;;;;;8.00;2.42;;;15.50;99.90;;;;;;4850710;29;20571;-82
2023/10/07 02:06:54;;;;;;;12.50;2.67;;;15.50;99.90;;;;;;4847227;29;20590;-80
2023/10/07 02:09:24;;;;;;;9.43;2.60;;;15.50;99.90;;;;;;4836413;29;20054;-81
2023/10/07 02:12:01;;;;;;;9.00;2.73;;;15.50;99.90;;;;;;4828358;29;20117;-81
2023/10/07 02:14:28;;;;;;;7.78;2.70;;;15.50;99.90;;;;;;4838048;29;20284;-81
2023/10/07 02:16:59;;;;;;;7.82;2.42;;;15.50;99.90;;;;;;4846525;29;20042;-82
2023/10/07 02:19:28;;;;;;;6.93;2.60;;;15.50;99.90;;;;;;4847268;29;20074;-82
2023/10/07 02:22:03;;;;;;;10.65;2.53;;;15.50;99.90;;;;;;4848028;29;20030;-82
2023/10/07 02:24:33;;;;;;;12.88;2.50;;;15.50;99.90;;;;;;4847154;29;20038;-81
2023/10/07 02:27:05;;;;;;;8.02;2.45;;;15.50;99.90;;;;;;4846503;29;20543;-82
2023/10/07 02:29:32;;;;;;;9.60;2.40;;;15.50;99.90;;;;;;4846633;29;20148;-83
2023/10/07 02:32:12;;;;;;;10.35;3.17;;;15.40;99.90;;;;;;4848800;29;20089;-81
2023/10/07 02:34:51;;;;;;;8.70;2.60;;;15.40;99.90;;;;;;4841976;29;20078;-82
2023/10/07 02:37:21;;;;;;;7.13;2.55;;;15.40;99.90;;;;;;4835022;29;20022;-81
2023/10/07 02:39:47;;;;;;;9.73;2.40;;;15.40;99.90;;;;;;4848266;29;20123;-81
2023/10/07 02:42:28;;;;;;;8.05;2.35;;;15.40;99.90;;;;;;4847136;29;20064;-81
2023/10/07 02:45:01;;;;;;;7.25;2.58;;;15.40;99.90;;;;;;4848027;29;20048;-83
2023/10/07 02:47:31;;;;;;;8.65;2.60;;;15.40;99.90;;;;;;4846913;29;20038;-81
2023/10/07 02:50:00;;;;;;;7.55;2.42;;;15.30;99.90;;;;;;4849031;29;20072;-81
2023/10/07 02:52:36;;;;;;;11.90;2.83;;;15.40;99.90;;;;;;4857362;29;20036;-82
2023/10/07 02:57:45;;;;;;;10.98;3.33;;;15.40;99.90;;;;;;4848281;29;20037;-82
2023/10/07 03:00:29;;;;;;;12.93;3.17;;;15.40;99.90;;;;;;4858655;29;20029;-82
2023/10/07 03:03:19;;;;;;;13.82;3.60;;;15.40;99.90;;;;;;4847188;29;20129;-83
2023/10/07 03:05:44;;;;;;;7.53;2.65;;;15.40;99.90;;;;;;4846840;29;20109;-81
2023/10/07 03:08:19;;;;;;;11.95;3.13;;;15.40;99.90;;;;;;4862954;29;20062;-82
2023/10/07 03:10:54;;;;;;;7.43;2.50;;;15.40;99.90;;;;;;4864136;29;20041;-81
2023/10/07 03:13:22;;;;;;;8.95;3.08;;;15.40;99.90;;;;;;4844689;29;20030;-82
2023/10/07 03:16:09;;;;;;;6.50;2.47;;;15.50;99.90;;;;;;4859404;29;20048;-82
2023/10/07 03:18:33;;;;;;;8.57;3.00;;;15.50;99.90;;;;;;4854697;29;20045;-82
2023/10/07 03:21:11;;;;;;;9.27;3.05;;;15.40;99.90;;;;;;4847734;29;20062;-81
2023/10/07 03:23:45;;;;;;;8.88;2.80;;;15.40;99.90;;;;;;4847384;29;20037;-82
2023/10/07 03:26:13;;;;;;;12.25;3.20;;;15.40;99.90;;;;;;4847708;29;20064;-81
2023/10/07 03:28:48;;;;;;;10.98;2.92;;;15.40;99.90;;;;;;4847492;29;20021;-81
2023/10/07 03:31:18;;;;;;;12.13;3.05;;;15.40;99.90;;;;;;4836014;29;20033;-81
2023/10/07 03:33:53;;;;;;;10.63;3.30;;;15.40;99.90;;;;;;4832983;29;20055;-81
2023/10/07 03:39:11;;;;;;;14.18;3.13;;;15.40;99.90;;;;;;4851026;29;20085;-81
2023/10/07 03:41:47;;;;;;;11.75;3.00;;;15.40;99.90;;;;;;4849274;29;20037;-81
2023/10/07 03:44:19;;;;;;;9.90;3.28;;;15.30;99.90;;;;;;4849811;29;20136;-81
2023/10/07 03:46:47;;;;;;;10.65;3.10;;;15.30;99.90;;;;;;4856908;29;20176;-81
2023/10/07 03:49:23;;;;;;;8.48;3.05;;;15.30;99.90;;;;;;4849599;29;20036;-81
2023/10/07 03:51:59;;;;;;;6.60;2.95;;;15.40;99.90;;;;;;4862495;29;20105;-82
2023/10/07 03:54:29;;;;;;;16.42;2.90;;;15.30;99.90;;;;;;4868959;29;20669;-82
2023/10/07 03:57:00;;;;;;;9.63;3.08;;;15.30;99.90;;;;;;4851887;29;20045;-82
2023/10/07 03:59:32;;;;;;;;;;;15.30;99.90;;;;;;4855695;29;20624;-80
2023/10/07 04:01:58;;;;;;;13.43;3.10;;;15.30;99.90;;;;;;4848450;29;19912;-82
2023/10/07 04:04:24;;;;;;;9.32;2.63;;;15.30;99.90;;;;;;4851121;29;20061;-82
2023/10/07 04:06:50;;;;;;;11.20;3.25;;;15.30;99.90;;;;;;4863098;29;20156;-82
2023/10/07 04:09:17;;;;;;;12.05;3.83;;;15.30;99.90;;;;;;4860779;29;20124;-80
2023/10/07 04:11:49;;;;;;;9.45;3.10;;;15.30;99.90;;;;;;4850550;29;20506;-81
2023/10/07 04:14:28;;;;;;;11.98;2.83;;;15.30;99.90;;;;;;4850954;29;20046;-83
2023/10/07 04:17:11;;;;;;;10.80;3.05;;;15.20;99.90;;;;;;4848676;29;20049;-83
2023/10/07 04:19:42;;;;;;;9.30;3.20;;;15.20;99.90;;;;;;4847201;29;20136;-82
2023/10/07 04:22:11;;;;;;;10.35;3.30;;;15.30;99.90;;;;;;4859323;29;20047;-81
2023/10/07 04:24:44;;;;;;;14.13;3.00;;;15.30;99.90;;;;;;4850174;29;20033;-81
2023/10/07 04:27:18;;;;;;;16.08;3.42;;;15.30;99.90;;;;;;4865332;29;20056;-81
2023/10/07 04:29:44;;;;;;;9.80;2.78;;;15.20;99.90;;;;;;4865213;29;20150;-81
2023/10/07 04:32:20;;;;;;;12.55;3.00;;;15.20;99.90;;;;;;4848360;29;20052;-82
2023/10/07 04:35:00;;;;;;;12.88;3.10;;;15.20;99.90;;;;;;4847191;29;20034;-80
2023/10/07 04:37:43;;;;;;;12.32;2.60;;;15.20;99.90;;;;;;4846531;29;20066;-82
2023/10/07 04:42:39;;;;;;;8.80;3.05;;;15.20;99.90;;;;;;4845960;29;20033;-80
2023/10/07 04:51:03;;;;;;;11.77;3.15;;;15.10;99.90;;;;;;4859360;29;20168;-82
2023/10/07 04:53:38;;;;;;;9.10;2.80;;;15.00;99.90;;;;;;4853275;29;20752;-80
2023/10/07 04:56:08;;;;;;;11.88;2.78;;;15.00;99.90;;;;;;4846180;29;20088;-82
2023/10/07 04:58:34;;;;;;;11.10;3.03;;;14.90;99.90;;;;;;4843504;29;20788;-81
2023/10/07 05:01:06;;;;;;;12.32;3.05;;;14.90;99.90;;;;;;4849103;29;20123;-81
2023/10/07 05:03:34;;;;;;;9.50;2.60;;;14.80;99.90;;;;;;4857562;29;20530;-81
2023/10/07 05:06:00;;;;;;;6.53;2.70;;;14.80;99.90;;;;;;4847343;29;20061;-82
2023/10/07 05:08:27;;;;;;;11.20;2.70;;;14.80;99.90;;;;;;4843294;29;20445;-82
2023/10/07 05:11:04;;;;;;;10.68;2.80;;;14.70;99.90;;;;;;4847109;29;20037;-82
2023/10/07 05:13:32;;;;;;;13.32;3.17;;;14.70;99.90;;;;;;4860456;29;20068;-83
2023/10/07 05:15:57;;;;;;;13.27;3.45;;;14.70;99.90;;;;;;4840344;29;20929;-81
2023/10/07 05:18:23;;;;;;;10.05;2.70;;;14.70;99.90;;;;;;4839406;29;20029;-82
2023/10/07 05:20:51;;;;;;;10.48;3.00;;;14.70;99.90;;;;;;4847339;29;20460;-82
2023/10/07 05:23:17;;;;;;;11.50;3.05;;;14.70;99.90;;;;;;4853296;29;20039;-81
2023/10/07 05:25:50;;;;;;;10.25;3.05;;;14.80;99.90;;;;;;4857138;29;20522;-81
2023/10/07 05:28:20;;;;;;;9.68;2.95;;;14.80;99.90;;;;;;4839796;29;20032;-82
2023/10/07 05:30:52;;;;;;;11.27;3.20;;;14.80;99.90;;;;;;4865135;29;20503;-82
2023/10/07 05:33:17;;;;;;;12.32;3.17;;;14.80;99.90;;;;;;4844171;29;20440;-80
2023/10/07 05:35:43;;;;;;;11.90;3.15;;;14.80;99.90;;;;;;4843455;29;20049;-83
2023/10/07 05:38:12;;;;;;;12.90;3.40;;;14.70;99.90;;;;;;4857643;29;20029;-83
2023/10/07 05:40:37;;;;;;;11.55;3.30;;;14.70;99.90;;;;;;4842949;29;20823;-82
2023/10/07 05:43:06;;;;;;;9.57;3.00;;;14.70;99.90;;;;;;4843772;29;20285;-82
2023/10/07 05:45:33;;;;;;;12.50;3.53;;;14.70;99.90;;;;;;4851123;29;20516;-83
2023/10/07 05:47:59;;;;;;;11.55;3.60;;;14.70;99.90;;;;;;4849050;29;20654;-83
2023/10/07 05:50:28;;;;;;;8.38;2.95;;;14.70;99.90;;;;;;4848681;29;20041;-80
2023/10/07 05:52:54;;;;;;;15.15;3.42;;;14.70;99.90;;;;;;4847521;29;20904;-80
2023/10/07 05:55:22;;;;;;;10.63;3.03;;;14.70;99.90;;;;;;4853035;29;20045;-81
2023/10/07 05:57:48;;;;;;;12.90;3.30;;;14.70;99.90;;;;;;4847979;29;20033;-82
2023/10/07 06:00:17;;;;;;;16.48;3.30;;;14.60;99.90;;;;;;4847080;29;20041;-81
2023/10/07 06:02:42;;;;;;;9.55;3.05;;;14.60;99.90;;;;;;4847006;29;20033;-83
2023/10/07 06:05:10;;;;;;;12.95;3.28;;;14.50;99.90;;;;;;4848886;29;20033;-83
2023/10/07 06:07:39;;;;;;;9.00;2.78;;;14.50;99.90;;;;;;4849301;29;20042;-82
2023/10/07 06:10:09;;;;;;;10.38;3.17;;;14.50;99.90;;;;;;4854099;29;20033;-83
2023/10/07 06:12:35;;;;;;;9.63;4.00;;;14.50;99.90;;;;;;4842682;29;20083;-83
2023/10/07 06:15:00;;;;;;;12.50;3.67;;;14.50;99.90;;;;;;4848215;29;20777;-82
2023/10/07 06:17:26;;;;;;;11.18;3.70;;;14.50;99.90;;;;;;4844820;29;20124;-83
2023/10/07 06:19:52;;;;;;;10.30;3.35;;;14.50;99.90;;;;;;4839601;29;20068;-83
2023/10/07 06:22:18;;;;;;;10.13;3.58;;;14.50;99.90;;;;;;4842062;29;20122;-82
2023/10/07 06:24:44;;;;;;;9.02;3.40;;;14.50;99.90;;;;;;4844660;29;20091;-83
2023/10/07 06:27:13;;;;;;;10.18;3.83;;;14.50;99.90;;;;;;4844969;29;20065;-83
2023/10/07 06:29:45;;;;;;;10.27;3.95;;;14.50;99.90;;;;;;4864148;29;20053;-83
2023/10/07 06:32:43;;;;;;;9.98;4.20;;;14.60;99.90;;;;;;4852118;29;20440;-81
2023/10/07 06:34:59;;;;;;;11.32;4.65;;;14.60;99.90;;;;;;4848111;29;20038;-82
2023/10/07 06:37:30;;;;;;;9.30;3.90;;;14.60;99.90;;;;;;4848051;29;20038;-83
2023/10/07 06:40:00;;;;;;;9.52;4.57;;;14.70;99.90;;;;;;4841778;29;20041;-82
2023/10/07 06:42:27;;;;;;;14.68;4.80;;;14.80;99.90;;;;;;4846266;29;20064;-84
2023/10/07 06:44:56;;;;;;;17.17;4.22;;;14.90;99.90;;;;;;4838379;29;20479;-83
2023/10/07 06:47:23;;;;;;;17.67;6.55;;;15.00;99.90;;;;;;4848294;29;20018;-84
2023/10/07 06:49:52;;;;;;;30.33;8.73;;;15.10;99.90;;;;;;4848745;29;20042;-88
2023/10/07 06:52:19;;;;;;;12.00;5.63;;;15.30;99.90;;;;;;4846992;29;20040;-83
2023/10/07 06:54:47;;;;;;;12.00;4.80;;;15.40;99.90;;;;;;4835942;29;20033;-85
2023/10/07 06:57:13;;;;;;;15.20;4.55;;;15.50;99.90;;;;;;4843721;29;20053;-84
2023/10/07 06:59:45;;;;;;;14.30;4.55;;;15.70;99.90;;;;;;4852454;29;20033;-85
2023/10/07 07:02:17;;;;;;;30.08;15.27;;;15.80;99.90;;;;;;4858475;29;20065;-84
2023/10/07 07:04:43;;;;;;;22.95;11.85;;;15.90;99.90;;;;;;4857591;29;20795;-84
2023/10/07 07:07:10;;;;;;;16.63;6.45;;;16.10;99.90;;;;;;4860586;29;20136;-84
2023/10/07 07:12:16;;;;;;;9.52;4.50;;;16.50;99.90;;;;;;4852712;29;20038;-84
2023/10/07 07:14:50;;;;;;;15.98;4.47;;;16.80;99.90;;;;;;4855413;29;20105;-83
2023/10/07 07:17:38;;;;;;;14.02;5.13;;;17.00;99.90;;;;;;4853175;29;20044;-83
2023/10/07 07:22:39;;;;;;;14.63;3.97;;;17.40;99.90;;;;;;4851988;29;20052;-83
2023/10/07 07:25:10;;;;;;;14.57;4.10;;;17.60;99.90;;;;;;4856456;29;20029;-84
2023/10/07 07:27:36;;;;;;;12.30;4.32;;;17.80;99.90;;;;;;4863876;29;20437;-83
2023/10/07 07:30:03;;;;;;;10.32;3.90;;;18.00;99.90;;;;;;4850980;29;20037;-84
2023/10/07 07:32:33;;;;;;;10.93;4.43;;;18.20;99.90;;;;;;4847140;29;20030;-84
2023/10/07 07:35:05;;;;;;;12.18;4.20;;;18.50;99.90;;;;;;4832136;29;20046;-82
2023/10/07 07:37:34;;;;;;;10.05;3.50;;;18.90;99.90;;;;;;4846958;29;20038;-83
2023/10/07 07:40:09;;;;;;;11.25;4.00;;;19.20;99.90;;;;;;4834056;29;20045;-82
2023/10/07 07:42:35;;;;;;;11.48;3.45;;;19.50;99.90;;;;;;4868698;29;20104;-82
2023/10/07 07:45:01;;;;;;;10.45;3.42;;;19.80;99.90;;;;;;4857083;29;20128;-82
2023/10/07 07:47:31;;;;;;;7.63;2.95;;;20.10;99.90;;;;;;4843817;29;20495;-85
2023/10/07 07:50:00;;;;;;;9.55;2.95;;;20.70;99.90;;;;;;4847657;29;20034;-82
2023/10/07 07:52:25;;;;;;;9.60;2.78;;;21.70;99.90;;;;;;4847929;29;20029;-84
2023/10/07 07:54:53;;;;;;;10.90;2.60;;;23.00;99.90;;;;;;4843442;29;20029;-83
2023/10/07 07:57:22;;;;;;;13.43;2.78;;;24.50;99.90;;;;;;4860057;29;20065;-82
2023/10/07 07:59:47;;;;;;;10.35;2.67;;;25.90;99.90;;;;;;4863081;29;20102;-83
2023/10/07 08:02:15;;;;;;;8.80;2.83;;;27.00;99.90;;;;;;4849778;29;20468;-84
2023/10/07 08:04:50;;;;;;;11.70;2.22;;;28.10;99.90;;;;;;4863257;29;20392;-82
2023/10/07 08:07:27;;;;;;;5.82;2.00;;;29.00;98.40;;;;;;4852155;29;20101;-83
2023/10/07 08:10:03;;;;;;;7.82;2.20;;;30.00;94.70;;;;;;4847185;29;20040;-83
2023/10/07 08:12:36;;;;;;;7.20;2.13;;;30.80;91.60;;;;;;4862408;29;20041;-82
2023/10/07 08:15:21;;;;;;;5.95;2.05;;;31.60;87.30;;;;;;4862322;29;20466;-85
2023/10/07 08:17:50;;;;;;;9.35;2.00;;;32.10;79.60;;;;;;4848408;29;20033;-81
2023/10/07 08:20:15;;;;;;;8.07;2.13;;;32.30;76.30;;;;;;4850419;29;20033;-81
2023/10/07 08:22:51;;;;;;;6.85;1.98;;;32.90;73.10;;;;;;4857091;29;20717;-83
2023/10/07 08:25:29;;;;;;;8.43;2.13;;;33.50;68.00;;;;;;4867864;29;20025;-83
2023/10/07 08:27:55;;;;;;;6.88;2.30;;;33.90;67.70;;;;;;4867981;29;20083;-84
2023/10/07 08:30:37;;;;;;;6.85;2.20;;;34.30;62.60;;;;;;4868746;29;20056;-83
2023/10/07 08:33:12;;;;;;;4.43;1.92;;;34.40;59.60;;;;;;4865322;29;20441;-82
2023/10/07 08:35:37;;;;;;;5.88;1.85;;;33.90;58.00;;;;;;4835804;29;20045;-83
2023/10/07 08:38:19;;;;;;;8.10;2.55;;;33.50;61.20;;;;;;4847981;29;20728;-84
2023/10/07 08:40:49;;;;;;;5.05;2.10;;;33.40;62.70;;;;;;4849842;29;20101;-89
2023/10/07 08:43:25;;;;;;;5.10;1.92;;;33.20;61.40;;;;;;4877397;29;20382;-87
2023/10/07 08:45:51;;;;;;;7.47;1.85;;;32.80;58.90;;;;;;4850382;29;20276;-88
2023/10/07 08:48:17;;;;;;;6.82;2.10;;;32.20;59.30;;;;;;4852760;29;20030;-86
2023/10/07 08:50:55;;;;;;;6.70;1.90;;;31.30;61.00;;;;;;4840403;29;20042;-83
2023/10/07 08:53:26;;;;;;;6.35;2.25;;;30.40;64.40;;;;;;4846209;29;20615;-83
2023/10/07 08:55:57;;;;;;;;;;;29.80;66.60;;;;;;4846081;29;20123;-82
2023/10/07 08:58:27;;;;;;;4.63;2.10;;;29.40;66.70;;;;;;4846786;29;19923;-83
2023/10/07 09:00:55;;;;;;;5.57;1.98;;;29.00;68.60;;;;;;4844298;29;20044;-83
2023/10/07 09:03:26;;;;;;;11.60;2.25;;;28.90;67.20;;;;;;4849552;29;20124;-83
2023/10/07 09:05:52;;;;;;;4.47;1.90;;;29.30;67.00;;;;;;4845715;29;20099;-83
2023/10/07 09:08:22;;;;;;;5.75;1.92;;;30.10;66.10;;;;;;4846933;29;20441;-82
2023/10/07 09:10:50;;;;;;;7.70;2.13;;;31.20;66.50;;;;;;4856856;23;20033;-68
2023/10/07 09:13:31;;;;;;;6.75;1.80;;;32.30;61.50;;;;;;4846969;29;20151;-68
2023/10/07 09:15:59;;;;;;;;;;;33.30;60.00;;;;;;4849536;29;20090;-69
2023/10/07 09:18:37;;;;;;;6.72;1.80;;;33.50;56.40;;;;;;4851564;29;20252;-69
2023/10/07 09:21:09;;;;;;;5.85;1.58;;;34.20;57.20;;;;;;4850213;29;20049;-68
2023/10/07 09:23:44;;;;;;;7.20;1.70;;;34.90;56.80;;;;;;4856985;29;20033;-69
2023/10/07 09:26:33;;;;;;;3.50;1.85;;;35.80;54.50;;;;;;4852437;29;20465;-69
2023/10/07 09:28:58;;;;;;;6.80;2.25;;;36.80;52.80;;;;;;4847647;29;20331;-69
2023/10/07 09:31:27;;;;;;;6.72;2.08;;;37.50;52.10;;;;;;4850651;29;20598;-67
2023/10/07 09:34:01;;;;;;;6.47;2.17;;;38.60;51.50;;;;;;4853884;29;20060;-67
2023/10/07 09:39:13;;;;;;;7.35;2.17;;;38.70;47.80;;;;;;4853668;29;20064;-69
2023/10/07 09:41:43;;;;;;;5.32;1.95;;;38.70;46.80;;;;;;4861302;29;20037;-69
2023/10/07 09:44:26;;;;;;;6.10;2.25;;;37.80;48.80;;;;;;4859329;29;20055;-69
2023/10/07 09:46:52;;;;;;;9.00;1.92;;;37.30;48.30;;;;;;4862896;29;20037;-68
2023/10/07 09:49:25;;;;;;;8.95;2.20;;;37.30;48.80;;;;;;4860754;29;20033;-68
2023/10/07 09:52:02;;;;;;;8.43;2.03;;;37.60;49.40;;;;;;4860904;29;20527;-69
2023/10/07 09:54:47;;;;;;;7.30;2.20;;;38.00;48.10;;;;;;4844444;29;20541;-68
2023/10/07 09:57:36;;;;;;;6.82;1.80;;;37.70;46.40;;;;;;4853598;29;20891;-68
2023/10/07 10:03:30;;;;;;;8.65;2.22;;;37.50;49.10;;;;;;4861297;29;20048;-67
2023/10/07 10:06:07;;;;;;;5.55;2.20;;;37.80;47.10;;;;;;4863374;29;20375;-68
2023/10/07 10:08:57;;;;;;;6.55;1.95;;;37.50;48.30;;;;;;4862394;29;20044;-69
2023/10/07 10:16:53;;;;;;;9.40;2.97;;;36.80;49.40;;;;;;4862493;29;20065;-69
2023/10/07 10:19:26;;;;;;;7.80;2.60;;;37.10;50.10;;;;;;4853982;29;20028;-69
2023/10/07 10:21:52;;;;;;;7.95;2.33;;;36.90;49.30;;;;;;4860262;29;20024;-69
2023/10/07 10:24:23;;;;;;;10.93;2.30;;;36.30;50.60;;;;;;4861374;29;20099;-69
2023/10/07 10:26:50;;;;;;;9.40;2.58;;;36.20;49.90;;;;;;4857152;29;20354;-69
2023/10/07 10:29:25;;;;;;;11.93;2.65;;;36.30;50.30;;;;;;4858906;29;20511;-69
2023/10/07 10:32:07;;;;;;;8.10;2.33;;;36.70;50.50;;;;;;4851391;29;20189;-69
2023/10/07 10:34:33;;;;;;;9.50;2.47;;;36.30;50.10;;;;;;4863419;29;20045;-69
2023/10/07 10:36:59;;;;;;;8.40;2.40;;;36.20;50.50;;;;;;4864229;29;20547;-69
2023/10/07 10:39:31;;;;;;;11.43;2.40;;;36.50;50.70;;;;;;4861665;29;20380;-69
2023/10/07 10:42:09;;;;;;;4.65;1.98;;;36.50;50.60;;;;;;4862928;29;20056;-69
2023/10/07 10:44:39;;;;;;;8.73;2.25;;;36.10;50.10;;;;;;4863320;29;20515;-68
2023/10/07 10:47:07;;;;;;;8.17;1.93;;;35.20;51.50;;;;;;4859324;29;20485;-67
2023/10/07 10:49:35;;;;;;;6.82;2.33;;;35.20;52.20;;;;;;4858644;29;20793;-68
2023/10/07 10:52:02;;;;;;;7.93;2.60;;;34.50;52.40;;;;;;4849698;29;20040;-68
2023/10/07 10:54:28;;;;;;;5.50;1.92;;;34.20;52.50;;;;;;4859294;29;20029;-68
2023/10/07 10:56:58;;;;;;;6.65;2.10;;;34.10;51.60;;;;;;4862532;29;20143;-70
2023/10/07 10:59:42;;;;;;;10.87;2.50;;;33.90;53.50;;;;;;4863202;29;20061;-69
2023/10/07 11:02:20;;;;;;;8.57;2.40;;;33.60;54.60;;;;;;4855553;29;20056;-69
2023/10/07 11:04:49;;;;;;;8.10;2.20;;;33.50;55.70;;;;;;4863557;29;20116;-69
2023/10/07 11:07:15;;;;;;;9.32;2.20;;;33.70;57.30;;;;;;4854150;29;20201;-69
2023/10/07 11:09:49;;;;;;;5.03;2.08;;;33.70;55.80;;;;;;4860023;29;20108;-69
2023/10/07 11:12:18;;;;;;;7.75;2.22;;;33.30;56.10;;;;;;4861177;29;20140;-69
2023/10/07 11:14:47;;;;;;;8.50;2.15;;;32.90;58.10;;;;;;4861066;29;20120;-69
2023/10/07 11:17:15;;;;;;;9.98;2.58;;;32.40;57.90;;;;;;4854325;29;20048;-69
2023/10/07 11:19:51;;;;;;;7.13;2.40;;;31.90;59.80;;;;;;4861797;29;20427;-69
2023/10/07 11:22:21;;;;;;;5.18;2.20;;;31.60;58.90;;;;;;4861517;29;20382;-68
2023/10/07 11:24:50;;;;;;;8.07;2.20;;;31.40;61.60;;;;;;4856716;29;20032;-74
2023/10/07 11:27:26;;;;;;;7.65;2.35;;;31.10;60.00;;;;;;4854420;29;20040;-68
2023/10/07 11:30:03;;;;;;;6.82;1.90;;;30.80;60.90;;;;;;4857531;29;20033;-69
2023/10/07 11:32:38;;;;;;;6.60;2.08;;;30.50;65.30;;;;;;4853950;29;20029;-69
2023/10/07 11:35:19;;;;;;;6.90;2.33;;;30.10;65.30;;;;;;4858749;29;20055;-69
2023/10/07 11:37:57;;;;;;;7.25;2.40;;;30.20;64.50;;;;;;4859842;29;20045;-69
2023/10/07 11:40:27;;;;;;;8.60;2.13;;;30.20;65.70;;;;;;4853622;29;20029;-70
2023/10/07 11:42:53;;;;;;;4.88;1.90;;;30.20;64.20;;;;;;4856791;29;20355;-69
2023/10/07 11:45:22;;;;;;;7.88;2.25;;;30.20;64.90;;;;;;4857913;29;20563;-69
2023/10/07 11:47:48;;;;;;;8.68;2.00;;;30.10;66.00;;;;;;4856386;29;20077;-69
2023/10/07 11:50:16;;;;;;;7.68;2.25;;;29.90;71.60;;;;;;4852498;29;20033;-69
2023/10/07 11:52:42;;;;;;;5.97;2.22;;;30.00;71.50;;;;;;4859994;29;20036;-69
2023/10/07 11:55:09;;;;;;;8.13;2.08;;;29.70;65.40;;;;;;4861309;29;20037;-70
2023/10/07 11:57:37;;;;;;;8.38;2.15;;;29.20;65.50;;;;;;4854513;29;20033;-70
2023/10/07 12:00:22;;;;;;;9.43;2.38;;;28.40;70.00;;;;;;4859074;29;20040;-69
2023/10/07 12:02:52;;;;;;;9.18;2.28;;;28.30;77.00;;;;;;4852454;29;20463;-69
2023/10/07 12:05:18;;;;;;;9.60;2.67;;;28.10;74.20;;;;;;4859121;29;20029;-69
2023/10/07 12:07:47;;;;;;;8.20;2.08;;;27.90;76.10;;;;;;4852396;29;20534;-69
2023/10/07 12:10:15;;;;;;;7.50;2.33;;;27.60;76.20;;;;;;4858828;29;20040;-69
2023/10/07 12:12:42;;;;;;;6.25;2.08;;;27.50;77.60;;;;;;4857445;29;20060;-70
2023/10/07 12:15:18;;;;;;;7.43;2.05;;;27.50;82.70;;;;;;4857149;29;20029;-69
2023/10/07 12:17:48;;;;;;;7.05;2.20;;;27.20;81.80;;;;;;4861048;29;20041;-70
2023/10/07 12:20:15;;;;;;;;;;;27.00;83.20;;;;;;4863027;29;20029;-69
2023/10/07 12:22:42;;;;;;;10.63;2.33;;;26.90;88.40;;;;;;4858891;29;20398;-69
2023/10/07 12:25:15;;;;;;;8.00;2.05;;;26.90;90.30;;;;;;4851363;29;20554;-70
2023/10/07 12:27:44;;;;;;;10.70;2.03;;;27.20;90.00;;;;;;4861673;29;20400;-70
2023/10/07 12:30:11;;;;;;;8.38;2.15;;;27.10;88.70;;;;;;4855075;29;20105;-69
2023/10/07 12:32:43;;;;;;;8.30;2.40;;;27.10;93.80;;;;;;4861181;29;20540;-69
2023/10/07 12:35:09;;;;;;;7.07;2.10;;;27.20;90.70;;;;;;4863456;29;20037;-69
2023/10/07 12:37:39;;;;;;;8.60;2.33;;;27.30;94.10;;;;;;4861481;29;20049;-69
2023/10/07 12:40:12;;;;;;;10.40;2.20;;;27.50;89.90;;;;;;4842630;29;20091;-69
2023/10/07 12:42:39;;;;;;;6.30;2.08;;;27.50;93.10;;;;;;4856116;29;20044;-69
2023/10/07 12:45:06;;;;;;;7.65;2.08;;;27.20;90.00;;;;;;4853782;29;20139;-69
2023/10/07 12:47:33;;;;;;;8.18;2.50;;;27.00;96.60;;;;;;4856547;29;20054;-69
2023/10/07 12:49:59;;;;;;;7.25;1.95;;;27.10;95.40;;;;;;4854862;29;20080;-69
2023/10/07 12:52:26;;;;;;;9.10;2.58;;;27.10;93.40;;;;;;4856039;29;20475;-70
2023/10/07 12:54:52;;;;;;;6.53;2.28;;;27.10;93.90;;;;;;4859606;29;20033;-69
2023/10/07 12:57:18;;;;;;;8.60;2.22;;;27.00;91.70;;;;;;4861192;29;20104;-69
2023/10/07 12:59:47;;;;;;;8.18;2.50;;;27.10;92.80;;;;;;4849211;29;20036;-70
2023/10/07 13:02:17;;;;;;;10.02;2.58;;;27.10;93.10;;;;;;4856194;29;20061;-69
2023/10/07 13:04:47;;;;;;;8.10;2.70;;;26.90;92.20;;;;;;4857847;29;20342;-69
2023/10/07 13:07:14;;;;;;;11.32;2.40;;;26.60;93.90;;;;;;4857115;29;20461;-69
2023/10/07 13:09:43;;;;;;;8.75;1.95;;;26.80;94.80;;;;;;4858639;29;20033;-69
2023/10/07 13:12:13;;;;;;;9.63;2.60;;;26.70;95.70;;;;;;4857391;29;20061;-68
2023/10/07 13:14:42;;;;;;;6.93;2.22;;;26.60;95.40;;;;;;4846940;29;20030;-69
2023/10/07 13:17:13;;;;;;;7.78;2.50;;;26.70;94.90;;;;;;4843832;29;20535;-68
2023/10/07 13:19:40;;;;;;;9.68;2.35;;;26.50;92.20;;;;;;4856047;29;20025;-69
2023/10/07 13:22:06;;;;;;;8.02;2.53;;;26.50;95.20;;;;;;4859709;29;20041;-69
2023/10/07 13:24:32;;;;;;;5.97;2.10;;;26.50;94.20;;;;;;4859369;29;20036;-69
2023/10/07 13:26:58;;;;;;;7.88;2.15;;;26.50;94.60;;;;;;4853926;29;20569;-69
2023/10/07 13:29:24;;;;;;;6.88;2.35;;;26.70;96.50;;;;;;4859138;29;20272;-69
2023/10/07 13:31:52;;;;;;;8.18;2.20;;;26.80;93.00;;;;;;4856844;29;20302;-69
2023/10/07 13:34:19;;;;;;;7.72;2.30;;;26.80;94.50;;;;;;4859939;29;20375;-69
2023/10/07 13:36:45;;;;;;;7.00;2.22;;;26.90;95.00;;;;;;4856311;29;20069;-68
2023/10/07 13:39:16;;;;;;;6.80;2.25;;;26.90;93.30;;;;;;4857390;29;20029;-67
2023/10/07 13:41:45;;;;;;;11.73;2.40;;;26.90;92.40;;;;;;4858780;29;20037;-67
2023/10/07 13:44:16;;;;;;;6.25;2.47;;;26.70;93.20;;;;;;4861019;29;20112;-67